sensor_id;sensor_type;location;lat;lon;timestamp;P1;durP1;ratioP1;P2;durP2;ratioP2
18304;SDS011;9278;52.156;21.048;2023-04-25T00:00:29;19.80;;;13.25;;
18304;SDS011;9278;52.156;21.048;2023-04-25T00:02:57;24.02;;;13.80;;
18304;SDS011;9278;52.156;21.048;2023-04-25T00:05:28;26.55;;;14.45;;
18304;SDS011;9278;52.156;21.048;2023-04-25T00:07:57;25.10;;;14.50;;
18304;SDS011;9278;52.156;21.048;2023-04-25T00:10:25;25.90;;;15.00;;
18304;SDS011;9278;52.156;21.048;2023-04-25T00:12:53;25.52;;;14.70;;
18304;SDS011;9278;52.156;21.048;2023-04-25T00:15:22;25.25;;;14.95;;
18304;SDS011;9278;52.156;21.048;2023-04-25T00:17:50;23.05;;;15.02;;
18304;SDS011;9278;52.156;21.048;2023-04-25T00:20:19;24.02;;;14.10;;
18304;SDS011;9278;52.156;21.048;2023-04-25T00:22:49;23.45;;;14.73;;
18304;SDS011;9278;52.156;21.048;2023-04-25T00:25:19;25.98;;;14.52;;
18304;SDS011;9278;52.156;21.048;2023-04-25T00:27:47;24.90;;;15.85;;
18304;SDS011;9278;52.156;21.048;2023-04-25T00:30:16;25.55;;;14.25;;
18304;SDS011;9278;52.156;21.048;2023-04-25T00:32:44;21.63;;;14.00;;
18304;SDS011;9278;52.156;21.048;2023-04-25T00:35:12;23.83;;;14.57;;
18304;SDS011;9278;52.156;21.048;2023-04-25T00:37:41;22.92;;;13.98;;
18304;SDS011;9278;52.156;21.048;2023-04-25T00:40:10;23.30;;;14.10;;
18304;SDS011;9278;52.156;21.048;2023-04-25T00:42:39;22.80;;;13.88;;
18304;SDS011;9278;52.156;21.048;2023-04-25T00:45:09;19.92;;;12.80;;
18304;SDS011;9278;52.156;21.048;2023-04-25T00:47:41;24.90;;;15.25;;
18304;SDS011;9278;52.156;21.048;2023-04-25T00:50:10;21.85;;;15.00;;
18304;SDS011;9278;52.156;21.048;2023-04-25T00:52:38;25.67;;;14.73;;
18304;SDS011;9278;52.156;21.048;2023-04-25T00:55:12;26.77;;;14.70;;
18304;SDS011;9278;52.156;21.048;2023-04-25T00:57:42;24.27;;;14.65;;
18304;SDS011;9278;52.156;21.048;2023-04-25T01:00:10;25.38;;;14.65;;
18304;SDS011;9278;52.156;21.048;2023-04-25T01:02:39;25.67;;;15.50;;
18304;SDS011;9278;52.156;21.048;2023-04-25T01:05:09;25.17;;;14.57;;
18304;SDS011;9278;52.156;21.048;2023-04-25T01:07:38;26.92;;;15.45;;
18304;SDS011;9278;52.156;21.048;2023-04-25T01:10:07;29.10;;;14.73;;
18304;SDS011;9278;52.156;21.048;2023-04-25T01:12:38;22.42;;;15.02;;
18304;SDS011;9278;52.156;21.048;2023-04-25T01:15:06;23.45;;;14.90;;
18304;SDS011;9278;52.156;21.048;2023-04-25T01:17:35;24.40;;;15.15;;
18304;SDS011;9278;52.156;21.048;2023-04-25T01:20:03;25.80;;;15.55;;
18304;SDS011;9278;52.156;21.048;2023-04-25T01:22:35;25.00;;;15.43;;
18304;SDS011;9278;52.156;21.048;2023-04-25T01:25:03;25.23;;;15.18;;
18304;SDS011;9278;52.156;21.048;2023-04-25T01:27:32;23.90;;;16.50;;
18304;SDS011;9278;52.156;21.048;2023-04-25T01:30:01;27.02;;;15.82;;
18304;SDS011;9278;52.156;21.048;2023-04-25T01:32:31;30.58;;;16.08;;
18304;SDS011;9278;52.156;21.048;2023-04-25T01:35:05;28.77;;;16.95;;
18304;SDS011;9278;52.156;21.048;2023-04-25T01:37:37;25.65;;;16.33;;
18304;SDS011;9278;52.156;21.048;2023-04-25T01:40:06;26.75;;;16.27;;
18304;SDS011;9278;52.156;21.048;2023-04-25T01:42:36;24.67;;;15.68;;
18304;SDS011;9278;52.156;21.048;2023-04-25T01:45:06;25.55;;;15.98;;
18304;SDS011;9278;52.156;21.048;2023-04-25T01:47:37;22.02;;;15.05;;
18304;SDS011;9278;52.156;21.048;2023-04-25T01:50:06;24.15;;;15.68;;
18304;SDS011;9278;52.156;21.048;2023-04-25T01:52:38;23.73;;;15.82;;
18304;SDS011;9278;52.156;21.048;2023-04-25T01:55:07;22.73;;;14.25;;
18304;SDS011;9278;52.156;21.048;2023-04-25T01:57:39;23.98;;;14.32;;
18304;SDS011;9278;52.156;21.048;2023-04-25T02:00:08;24.90;;;14.50;;
18304;SDS011;9278;52.156;21.048;2023-04-25T02:02:40;22.60;;;14.30;;
18304;SDS011;9278;52.156;21.048;2023-04-25T02:05:21;21.13;;;13.73;;
18304;SDS011;9278;52.156;21.048;2023-04-25T02:07:52;25.08;;;13.85;;
18304;SDS011;9278;52.156;21.048;2023-04-25T02:10:20;21.27;;;14.35;;
18304;SDS011;9278;52.156;21.048;2023-04-25T02:13:02;23.70;;;14.70;;
18304;SDS011;9278;52.156;21.048;2023-04-25T02:15:49;21.20;;;13.40;;
18304;SDS011;9278;52.156;21.048;2023-04-25T02:18:19;22.27;;;13.73;;
18304;SDS011;9278;52.156;21.048;2023-04-25T02:20:47;23.17;;;13.88;;
18304;SDS011;9278;52.156;21.048;2023-04-25T02:23:17;22.15;;;13.88;;
18304;SDS011;9278;52.156;21.048;2023-04-25T02:25:46;27.20;;;14.70;;
18304;SDS011;9278;52.156;21.048;2023-04-25T02:28:15;21.50;;;13.20;;
18304;SDS011;9278;52.156;21.048;2023-04-25T02:30:43;21.80;;;12.57;;
18304;SDS011;9278;52.156;21.048;2023-04-25T02:33:11;19.90;;;13.60;;
18304;SDS011;9278;52.156;21.048;2023-04-25T02:35:39;21.13;;;13.65;;
18304;SDS011;9278;52.156;21.048;2023-04-25T02:38:08;19.80;;;12.55;;
18304;SDS011;9278;52.156;21.048;2023-04-25T02:40:37;19.73;;;12.32;;
18304;SDS011;9278;52.156;21.048;2023-04-25T02:43:06;19.50;;;11.88;;
18304;SDS011;9278;52.156;21.048;2023-04-25T02:45:34;21.10;;;12.63;;
18304;SDS011;9278;52.156;21.048;2023-04-25T02:48:02;24.15;;;13.07;;
18304;SDS011;9278;52.156;21.048;2023-04-25T02:50:31;21.63;;;13.30;;
18304;SDS011;9278;52.156;21.048;2023-04-25T02:53:00;21.92;;;13.30;;
18304;SDS011;9278;52.156;21.048;2023-04-25T02:55:35;22.92;;;13.05;;
18304;SDS011;9278;52.156;21.048;2023-04-25T02:58:05;23.00;;;13.57;;
18304;SDS011;9278;52.156;21.048;2023-04-25T03:00:53;21.90;;;13.98;;
18304;SDS011;9278;52.156;21.048;2023-04-25T03:03:21;22.77;;;14.27;;
18304;SDS011;9278;52.156;21.048;2023-04-25T03:05:50;23.55;;;14.52;;
18304;SDS011;9278;52.156;21.048;2023-04-25T03:08:24;25.85;;;14.82;;
18304;SDS011;9278;52.156;21.048;2023-04-25T03:10:56;24.40;;;14.63;;
18304;SDS011;9278;52.156;21.048;2023-04-25T03:13:26;24.92;;;15.18;;
18304;SDS011;9278;52.156;21.048;2023-04-25T03:15:57;24.23;;;14.60;;
18304;SDS011;9278;52.156;21.048;2023-04-25T03:18:25;26.10;;;15.10;;
18304;SDS011;9278;52.156;21.048;2023-04-25T03:20:54;25.40;;;14.85;;
18304;SDS011;9278;52.156;21.048;2023-04-25T03:23:22;24.27;;;14.85;;
18304;SDS011;9278;52.156;21.048;2023-04-25T03:25:51;22.65;;;14.50;;
18304;SDS011;9278;52.156;21.048;2023-04-25T03:28:20;20.13;;;13.23;;
18304;SDS011;9278;52.156;21.048;2023-04-25T03:30:49;21.00;;;13.05;;
18304;SDS011;9278;52.156;21.048;2023-04-25T03:33:18;24.25;;;13.30;;
18304;SDS011;9278;52.156;21.048;2023-04-25T03:35:46;21.95;;;12.93;;
18304;SDS011;9278;52.156;21.048;2023-04-25T03:38:14;20.58;;;12.93;;
18304;SDS011;9278;52.156;21.048;2023-04-25T03:40:44;19.27;;;12.25;;
18304;SDS011;9278;52.156;21.048;2023-04-25T03:43:22;21.13;;;11.93;;
18304;SDS011;9278;52.156;21.048;2023-04-25T03:45:58;15.80;;;10.20;;
18304;SDS011;9278;52.156;21.048;2023-04-25T03:48:26;17.10;;;10.57;;
18304;SDS011;9278;52.156;21.048;2023-04-25T03:50:54;16.60;;;10.80;;
18304;SDS011;9278;52.156;21.048;2023-04-25T03:53:23;15.73;;;10.60;;
18304;SDS011;9278;52.156;21.048;2023-04-25T03:56:17;13.90;;;9.48;;
18304;SDS011;9278;52.156;21.048;2023-04-25T03:58:52;14.68;;;9.73;;
18304;SDS011;9278;52.156;21.048;2023-04-25T04:01:24;13.38;;;9.20;;
18304;SDS011;9278;52.156;21.048;2023-04-25T04:03:53;19.10;;;8.63;;
18304;SDS011;9278;52.156;21.048;2023-04-25T04:06:23;15.48;;;8.90;;
18304;SDS011;9278;52.156;21.048;2023-04-25T04:09:00;15.43;;;8.65;;
18304;SDS011;9278;52.156;21.048;2023-04-25T04:11:31;11.27;;;7.93;;
18304;SDS011;9278;52.156;21.048;2023-04-25T04:14:00;12.55;;;8.00;;
18304;SDS011;9278;52.156;21.048;2023-04-25T04:16:29;13.45;;;8.05;;
18304;SDS011;9278;52.156;21.048;2023-04-25T04:19:00;13.98;;;8.48;;
18304;SDS011;9278;52.156;21.048;2023-04-25T04:21:30;13.50;;;8.27;;
18304;SDS011;9278;52.156;21.048;2023-04-25T04:24:01;14.32;;;8.07;;
18304;SDS011;9278;52.156;21.048;2023-04-25T04:26:38;13.80;;;8.13;;
18304;SDS011;9278;52.156;21.048;2023-04-25T04:29:21;12.85;;;8.65;;
18304;SDS011;9278;52.156;21.048;2023-04-25T04:31:59;13.45;;;8.63;;
18304;SDS011;9278;52.156;21.048;2023-04-25T04:34:31;13.68;;;8.40;;
18304;SDS011;9278;52.156;21.048;2023-04-25T04:37:00;12.65;;;8.30;;
18304;SDS011;9278;52.156;21.048;2023-04-25T04:39:29;15.23;;;8.77;;
18304;SDS011;9278;52.156;21.048;2023-04-25T04:42:06;12.40;;;8.23;;
18304;SDS011;9278;52.156;21.048;2023-04-25T04:44:53;17.63;;;8.75;;
18304;SDS011;9278;52.156;21.048;2023-04-25T04:47:39;12.40;;;7.97;;
18304;SDS011;9278;52.156;21.048;2023-04-25T04:50:31;15.40;;;9.15;;
18304;SDS011;9278;52.156;21.048;2023-04-25T04:53:26;15.85;;;8.98;;
18304;SDS011;9278;52.156;21.048;2023-04-25T04:56:13;12.05;;;8.80;;
18304;SDS011;9278;52.156;21.048;2023-04-25T04:58:56;13.80;;;8.20;;
18304;SDS011;9278;52.156;21.048;2023-04-25T05:01:40;12.45;;;8.55;;
18304;SDS011;9278;52.156;21.048;2023-04-25T05:04:29;15.30;;;8.93;;
18304;SDS011;9278;52.156;21.048;2023-04-25T05:07:03;13.40;;;8.85;;
18304;SDS011;9278;52.156;21.048;2023-04-25T05:09:48;13.40;;;9.18;;
18304;SDS011;9278;52.156;21.048;2023-04-25T05:12:52;14.95;;;9.25;;
18304;SDS011;9278;52.156;21.048;2023-04-25T05:15:36;14.68;;;9.88;;
18304;SDS011;9278;52.156;21.048;2023-04-25T05:18:31;15.73;;;9.80;;
18304;SDS011;9278;52.156;21.048;2023-04-25T05:21:18;14.75;;;10.32;;
18304;SDS011;9278;52.156;21.048;2023-04-25T05:24:18;16.73;;;11.13;;
18304;SDS011;9278;52.156;21.048;2023-04-25T05:27:05;17.92;;;10.82;;
18304;SDS011;9278;52.156;21.048;2023-04-25T05:29:37;15.85;;;10.93;;
18304;SDS011;9278;52.156;21.048;2023-04-25T05:32:16;16.83;;;10.98;;
18304;SDS011;9278;52.156;21.048;2023-04-25T05:34:46;18.27;;;10.13;;
18304;SDS011;9278;52.156;21.048;2023-04-25T05:37:39;15.73;;;10.30;;
18304;SDS011;9278;52.156;21.048;2023-04-25T05:40:12;14.27;;;9.30;;
18304;SDS011;9278;52.156;21.048;2023-04-25T05:43:10;15.50;;;9.60;;
18304;SDS011;9278;52.156;21.048;2023-04-25T05:45:47;12.65;;;9.07;;
18304;SDS011;9278;52.156;21.048;2023-04-25T05:48:31;16.27;;;8.60;;
18304;SDS011;9278;52.156;21.048;2023-04-25T05:51:16;14.73;;;8.15;;
18304;SDS011;9278;52.156;21.048;2023-04-25T05:53:57;13.85;;;8.15;;
18304;SDS011;9278;52.156;21.048;2023-04-25T05:56:26;15.00;;;8.18;;
18304;SDS011;9278;52.156;21.048;2023-04-25T05:58:55;12.30;;;9.27;;
18304;SDS011;9278;52.156;21.048;2023-04-25T06:01:23;11.98;;;8.77;;
18304;SDS011;9278;52.156;21.048;2023-04-25T06:03:52;10.70;;;8.40;;
18304;SDS011;9278;52.156;21.048;2023-04-25T06:06:21;12.10;;;8.65;;
18304;SDS011;9278;52.156;21.048;2023-04-25T06:08:49;12.30;;;7.90;;
18304;SDS011;9278;52.156;21.048;2023-04-25T06:11:19;10.27;;;8.00;;
18304;SDS011;9278;52.156;21.048;2023-04-25T06:13:47;12.73;;;8.85;;
18304;SDS011;9278;52.156;21.048;2023-04-25T06:16:16;9.45;;;6.80;;
18304;SDS011;9278;52.156;21.048;2023-04-25T06:18:44;12.45;;;7.90;;
18304;SDS011;9278;52.156;21.048;2023-04-25T06:21:14;11.70;;;7.78;;
18304;SDS011;9278;52.156;21.048;2023-04-25T06:23:42;13.98;;;8.60;;
18304;SDS011;9278;52.156;21.048;2023-04-25T06:26:19;13.18;;;8.73;;
18304;SDS011;9278;52.156;21.048;2023-04-25T06:28:47;16.42;;;8.52;;
18304;SDS011;9278;52.156;21.048;2023-04-25T06:31:16;10.75;;;7.72;;
18304;SDS011;9278;52.156;21.048;2023-04-25T06:33:46;13.85;;;8.30;;
18304;SDS011;9278;52.156;21.048;2023-04-25T06:36:15;11.57;;;8.38;;
18304;SDS011;9278;52.156;21.048;2023-04-25T06:38:47;13.35;;;9.90;;
18304;SDS011;9278;52.156;21.048;2023-04-25T06:41:15;17.58;;;10.65;;
18304;SDS011;9278;52.156;21.048;2023-04-25T06:43:45;15.00;;;10.18;;
18304;SDS011;9278;52.156;21.048;2023-04-25T06:46:27;13.60;;;8.65;;
18304;SDS011;9278;52.156;21.048;2023-04-25T06:48:57;14.73;;;9.63;;
18304;SDS011;9278;52.156;21.048;2023-04-25T06:51:26;13.82;;;8.77;;
18304;SDS011;9278;52.156;21.048;2023-04-25T06:53:56;10.95;;;7.47;;
18304;SDS011;9278;52.156;21.048;2023-04-25T06:56:30;12.45;;;7.43;;
18304;SDS011;9278;52.156;21.048;2023-04-25T06:59:11;13.35;;;7.90;;
18304;SDS011;9278;52.156;21.048;2023-04-25T07:01:41;10.63;;;7.70;;
18304;SDS011;9278;52.156;21.048;2023-04-25T07:04:14;11.93;;;7.68;;
18304;SDS011;9278;52.156;21.048;2023-04-25T07:06:48;11.88;;;7.22;;
18304;SDS011;9278;52.156;21.048;2023-04-25T07:09:21;12.27;;;8.13;;
18304;SDS011;9278;52.156;21.048;2023-04-25T07:11:50;10.93;;;7.15;;
18304;SDS011;9278;52.156;21.048;2023-04-25T07:14:20;11.82;;;7.40;;
18304;SDS011;9278;52.156;21.048;2023-04-25T07:16:48;11.80;;;7.20;;
18304;SDS011;9278;52.156;21.048;2023-04-25T07:19:18;9.10;;;6.72;;
18304;SDS011;9278;52.156;21.048;2023-04-25T07:21:46;11.25;;;6.57;;
18304;SDS011;9278;52.156;21.048;2023-04-25T07:24:14;10.43;;;7.00;;
18304;SDS011;9278;52.156;21.048;2023-04-25T07:26:45;13.30;;;6.45;;
18304;SDS011;9278;52.156;21.048;2023-04-25T07:29:31;10.18;;;6.70;;
18304;SDS011;9278;52.156;21.048;2023-04-25T07:32:03;8.40;;;6.60;;
18304;SDS011;9278;52.156;21.048;2023-04-25T07:34:32;13.45;;;6.93;;
18304;SDS011;9278;52.156;21.048;2023-04-25T07:37:03;10.07;;;6.63;;
18304;SDS011;9278;52.156;21.048;2023-04-25T07:39:42;9.27;;;6.57;;
18304;SDS011;9278;52.156;21.048;2023-04-25T07:42:12;9.60;;;6.63;;
18304;SDS011;9278;52.156;21.048;2023-04-25T07:44:44;10.52;;;6.70;;
18304;SDS011;9278;52.156;21.048;2023-04-25T07:47:14;9.45;;;6.65;;
18304;SDS011;9278;52.156;21.048;2023-04-25T07:49:43;8.55;;;6.63;;
18304;SDS011;9278;52.156;21.048;2023-04-25T07:52:13;17.38;;;7.00;;
18304;SDS011;9278;52.156;21.048;2023-04-25T07:54:48;10.73;;;6.75;;
18304;SDS011;9278;52.156;21.048;2023-04-25T07:57:22;8.20;;;5.80;;
18304;SDS011;9278;52.156;21.048;2023-04-25T07:59:53;9.35;;;5.63;;
18304;SDS011;9278;52.156;21.048;2023-04-25T08:02:22;10.05;;;6.28;;
18304;SDS011;9278;52.156;21.048;2023-04-25T08:04:52;12.82;;;6.57;;
18304;SDS011;9278;52.156;21.048;2023-04-25T08:07:21;7.93;;;6.20;;
18304;SDS011;9278;52.156;21.048;2023-04-25T08:09:54;10.90;;;6.93;;
18304;SDS011;9278;52.156;21.048;2023-04-25T08:12:27;8.35;;;5.85;;
18304;SDS011;9278;52.156;21.048;2023-04-25T08:14:57;9.35;;;6.90;;
18304;SDS011;9278;52.156;21.048;2023-04-25T08:17:30;7.88;;;6.20;;
18304;SDS011;9278;52.156;21.048;2023-04-25T08:19:58;8.50;;;6.65;;
18304;SDS011;9278;52.156;21.048;2023-04-25T08:22:30;12.48;;;7.13;;
18304;SDS011;9278;52.156;21.048;2023-04-25T08:25:19;8.30;;;6.28;;
18304;SDS011;9278;52.156;21.048;2023-04-25T08:27:48;7.68;;;6.38;;
18304;SDS011;9278;52.156;21.048;2023-04-25T08:30:20;7.03;;;5.03;;
18304;SDS011;9278;52.156;21.048;2023-04-25T08:32:50;7.38;;;5.50;;
18304;SDS011;9278;52.156;21.048;2023-04-25T08:35:44;7.18;;;5.30;;
18304;SDS011;9278;52.156;21.048;2023-04-25T08:38:13;6.80;;;5.20;;
18304;SDS011;9278;52.156;21.048;2023-04-25T08:40:42;7.47;;;5.22;;
18304;SDS011;9278;52.156;21.048;2023-04-25T08:43:15;9.98;;;5.55;;
18304;SDS011;9278;52.156;21.048;2023-04-25T08:45:48;6.55;;;5.15;;
18304;SDS011;9278;52.156;21.048;2023-04-25T08:48:32;9.52;;;5.32;;
18304;SDS011;9278;52.156;21.048;2023-04-25T08:51:03;8.18;;;5.20;;
18304;SDS011;9278;52.156;21.048;2023-04-25T08:53:37;7.32;;;5.30;;
18304;SDS011;9278;52.156;21.048;2023-04-25T08:56:09;7.75;;;5.55;;
18304;SDS011;9278;52.156;21.048;2023-04-25T08:58:40;7.40;;;5.97;;
18304;SDS011;9278;52.156;21.048;2023-04-25T09:01:10;8.75;;;5.97;;
18304;SDS011;9278;52.156;21.048;2023-04-25T09:03:46;8.90;;;5.90;;
18304;SDS011;9278;52.156;21.048;2023-04-25T09:06:17;7.97;;;6.45;;
18304;SDS011;9278;52.156;21.048;2023-04-25T09:08:49;14.25;;;6.82;;
18304;SDS011;9278;52.156;21.048;2023-04-25T09:11:18;8.57;;;6.05;;
18304;SDS011;9278;52.156;21.048;2023-04-25T09:13:51;7.55;;;5.88;;
18304;SDS011;9278;52.156;21.048;2023-04-25T09:16:59;6.95;;;5.60;;
18304;SDS011;9278;52.156;21.048;2023-04-25T09:19:37;6.68;;;5.63;;
18304;SDS011;9278;52.156;21.048;2023-04-25T09:22:29;9.07;;;5.78;;
18304;SDS011;9278;52.156;21.048;2023-04-25T09:24:58;7.18;;;5.22;;
18304;SDS011;9278;52.156;21.048;2023-04-25T09:27:31;8.05;;;5.50;;
18304;SDS011;9278;52.156;21.048;2023-04-25T09:30:16;7.85;;;5.32;;
18304;SDS011;9278;52.156;21.048;2023-04-25T09:33:05;8.68;;;5.50;;
18304;SDS011;9278;52.156;21.048;2023-04-25T09:35:36;7.35;;;5.70;;
18304;SDS011;9278;52.156;21.048;2023-04-25T09:38:08;11.07;;;6.03;;
18304;SDS011;9278;52.156;21.048;2023-04-25T09:40:57;9.68;;;6.30;;
18304;SDS011;9278;52.156;21.048;2023-04-25T09:43:39;9.07;;;6.10;;
18304;SDS011;9278;52.156;21.048;2023-04-25T09:46:13;7.30;;;6.35;;
18304;SDS011;9278;52.156;21.048;2023-04-25T09:48:49;10.15;;;6.18;;
18304;SDS011;9278;52.156;21.048;2023-04-25T09:51:35;7.85;;;5.93;;
18304;SDS011;9278;52.156;21.048;2023-04-25T09:54:06;9.95;;;6.85;;
18304;SDS011;9278;52.156;21.048;2023-04-25T09:56:45;6.75;;;5.72;;
18304;SDS011;9278;52.156;21.048;2023-04-25T09:59:16;8.88;;;6.43;;
18304;SDS011;9278;52.156;21.048;2023-04-25T10:01:48;13.05;;;6.60;;
18304;SDS011;9278;52.156;21.048;2023-04-25T10:04:27;12.10;;;7.20;;
18304;SDS011;9278;52.156;21.048;2023-04-25T10:07:05;9.63;;;6.95;;
18304;SDS011;9278;52.156;21.048;2023-04-25T10:09:36;10.77;;;6.80;;
18304;SDS011;9278;52.156;21.048;2023-04-25T10:12:07;14.35;;;7.05;;
18304;SDS011;9278;52.156;21.048;2023-04-25T10:14:35;14.30;;;7.75;;
18304;SDS011;9278;52.156;21.048;2023-04-25T10:17:04;9.15;;;7.00;;
18304;SDS011;9278;52.156;21.048;2023-04-25T10:19:33;10.30;;;7.63;;
18304;SDS011;9278;52.156;21.048;2023-04-25T10:22:04;11.60;;;7.40;;
18304;SDS011;9278;52.156;21.048;2023-04-25T10:24:35;13.27;;;7.72;;
18304;SDS011;9278;52.156;21.048;2023-04-25T10:27:04;13.07;;;7.85;;
18304;SDS011;9278;52.156;21.048;2023-04-25T10:29:33;10.40;;;7.43;;
18304;SDS011;9278;52.156;21.048;2023-04-25T10:32:02;15.10;;;7.28;;
18304;SDS011;9278;52.156;21.048;2023-04-25T10:34:39;10.32;;;7.07;;
18304;SDS011;9278;52.156;21.048;2023-04-25T10:37:08;10.65;;;7.90;;
18304;SDS011;9278;52.156;21.048;2023-04-25T10:39:38;10.40;;;7.53;;
18304;SDS011;9278;52.156;21.048;2023-04-25T10:42:07;8.70;;;7.25;;
18304;SDS011;9278;52.156;21.048;2023-04-25T10:44:37;9.45;;;8.00;;
18304;SDS011;9278;52.156;21.048;2023-04-25T10:47:06;13.30;;;7.88;;
18304;SDS011;9278;52.156;21.048;2023-04-25T10:49:36;12.38;;;8.65;;
18304;SDS011;9278;52.156;21.048;2023-04-25T10:52:24;10.88;;;8.40;;
18304;SDS011;9278;52.156;21.048;2023-04-25T10:54:54;11.68;;;8.77;;
18304;SDS011;9278;52.156;21.048;2023-04-25T10:57:29;14.15;;;9.05;;
18304;SDS011;9278;52.156;21.048;2023-04-25T11:00:09;13.73;;;8.82;;
18304;SDS011;9278;52.156;21.048;2023-04-25T11:02:43;12.02;;;8.70;;
18304;SDS011;9278;52.156;21.048;2023-04-25T11:05:22;11.38;;;7.70;;
18304;SDS011;9278;52.156;21.048;2023-04-25T11:07:58;12.80;;;7.50;;
18304;SDS011;9278;52.156;21.048;2023-04-25T11:10:47;9.80;;;8.15;;
18304;SDS011;9278;52.156;21.048;2023-04-25T11:13:19;10.10;;;7.00;;
18304;SDS011;9278;52.156;21.048;2023-04-25T11:15:50;9.65;;;7.13;;
18304;SDS011;9278;52.156;21.048;2023-04-25T11:18:37;11.10;;;7.50;;
18304;SDS011;9278;52.156;21.048;2023-04-25T11:21:10;10.50;;;6.70;;
18304;SDS011;9278;52.156;21.048;2023-04-25T11:23:38;9.90;;;7.30;;
18304;SDS011;9278;52.156;21.048;2023-04-25T11:26:07;9.70;;;6.95;;
18304;SDS011;9278;52.156;21.048;2023-04-25T11:28:35;9.55;;;7.15;;
18304;SDS011;9278;52.156;21.048;2023-04-25T11:31:04;10.35;;;7.25;;
18304;SDS011;9278;52.156;21.048;2023-04-25T11:33:33;10.52;;;7.80;;
18304;SDS011;9278;52.156;21.048;2023-04-25T11:36:01;10.95;;;6.88;;
18304;SDS011;9278;52.156;21.048;2023-04-25T11:38:31;10.68;;;7.20;;
18304;SDS011;9278;52.156;21.048;2023-04-25T11:40:59;7.78;;;6.68;;
18304;SDS011;9278;52.156;21.048;2023-04-25T11:43:28;11.25;;;7.18;;
18304;SDS011;9278;52.156;21.048;2023-04-25T11:45:56;9.30;;;7.13;;
18304;SDS011;9278;52.156;21.048;2023-04-25T11:48:24;9.90;;;7.38;;
18304;SDS011;9278;52.156;21.048;2023-04-25T11:50:53;8.73;;;6.88;;
18304;SDS011;9278;52.156;21.048;2023-04-25T11:53:21;9.45;;;7.55;;
18304;SDS011;9278;52.156;21.048;2023-04-25T11:55:52;8.75;;;6.97;;
18304;SDS011;9278;52.156;21.048;2023-04-25T11:58:21;10.27;;;6.63;;
18304;SDS011;9278;52.156;21.048;2023-04-25T12:00:49;10.95;;;7.05;;
18304;SDS011;9278;52.156;21.048;2023-04-25T12:03:17;11.60;;;7.38;;
18304;SDS011;9278;52.156;21.048;2023-04-25T12:05:47;8.25;;;7.28;;
18304;SDS011;9278;52.156;21.048;2023-04-25T12:08:15;9.57;;;7.32;;
18304;SDS011;9278;52.156;21.048;2023-04-25T12:10:44;11.15;;;7.05;;
18304;SDS011;9278;52.156;21.048;2023-04-25T12:13:21;10.93;;;7.28;;
18304;SDS011;9278;52.156;21.048;2023-04-25T12:15:53;8.35;;;6.70;;
18304;SDS011;9278;52.156;21.048;2023-04-25T12:18:23;12.27;;;7.35;;
18304;SDS011;9278;52.156;21.048;2023-04-25T12:20:54;10.23;;;7.05;;
18304;SDS011;9278;52.156;21.048;2023-04-25T12:23:25;9.38;;;6.90;;
18304;SDS011;9278;52.156;21.048;2023-04-25T12:25:55;7.80;;;6.28;;
18304;SDS011;9278;52.156;21.048;2023-04-25T12:28:25;9.07;;;6.55;;
18304;SDS011;9278;52.156;21.048;2023-04-25T12:30:58;7.50;;;5.55;;
18304;SDS011;9278;52.156;21.048;2023-04-25T12:33:29;8.52;;;5.68;;
18304;SDS011;9278;52.156;21.048;2023-04-25T12:35:58;7.28;;;6.47;;
18304;SDS011;9278;52.156;21.048;2023-04-25T12:38:34;6.65;;;5.30;;
18304;SDS011;9278;52.156;21.048;2023-04-25T12:41:03;8.23;;;5.40;;
18304;SDS011;9278;52.156;21.048;2023-04-25T12:43:33;7.00;;;5.13;;
18304;SDS011;9278;52.156;21.048;2023-04-25T12:46:02;9.02;;;5.65;;
18304;SDS011;9278;52.156;21.048;2023-04-25T12:48:30;8.63;;;5.75;;
18304;SDS011;9278;52.156;21.048;2023-04-25T12:50:59;8.70;;;5.40;;
18304;SDS011;9278;52.156;21.048;2023-04-25T12:53:28;12.13;;;5.25;;
18304;SDS011;9278;52.156;21.048;2023-04-25T12:55:58;8.95;;;5.65;;
18304;SDS011;9278;52.156;21.048;2023-04-25T12:58:26;6.47;;;5.40;;
18304;SDS011;9278;52.156;21.048;2023-04-25T13:00:56;7.25;;;5.40;;
18304;SDS011;9278;52.156;21.048;2023-04-25T13:03:24;10.55;;;5.70;;
18304;SDS011;9278;52.156;21.048;2023-04-25T13:05:53;7.05;;;5.43;;
18304;SDS011;9278;52.156;21.048;2023-04-25T13:08:22;8.13;;;5.45;;
18304;SDS011;9278;52.156;21.048;2023-04-25T13:10:50;10.02;;;5.75;;
18304;SDS011;9278;52.156;21.048;2023-04-25T13:13:18;11.10;;;5.57;;
18304;SDS011;9278;52.156;21.048;2023-04-25T13:15:46;7.18;;;5.72;;
18304;SDS011;9278;52.156;21.048;2023-04-25T13:18:16;8.48;;;6.10;;
18304;SDS011;9278;52.156;21.048;2023-04-25T13:20:45;9.05;;;6.00;;
18304;SDS011;9278;52.156;21.048;2023-04-25T13:23:13;8.05;;;5.70;;
18304;SDS011;9278;52.156;21.048;2023-04-25T13:25:41;7.85;;;5.90;;
18304;SDS011;9278;52.156;21.048;2023-04-25T13:28:10;7.82;;;5.70;;
18304;SDS011;9278;52.156;21.048;2023-04-25T13:30:38;8.10;;;5.60;;
18304;SDS011;9278;52.156;21.048;2023-04-25T13:33:09;5.78;;;4.55;;
18304;SDS011;9278;52.156;21.048;2023-04-25T13:35:40;10.57;;;5.95;;
18304;SDS011;9278;52.156;21.048;2023-04-25T13:38:09;6.30;;;4.85;;
18304;SDS011;9278;52.156;21.048;2023-04-25T13:40:38;5.40;;;4.25;;
18304;SDS011;9278;52.156;21.048;2023-04-25T13:43:07;5.47;;;4.88;;
18304;SDS011;9278;52.156;21.048;2023-04-25T13:45:35;8.25;;;5.05;;
18304;SDS011;9278;52.156;21.048;2023-04-25T13:48:03;5.45;;;4.30;;
18304;SDS011;9278;52.156;21.048;2023-04-25T13:50:32;6.85;;;4.95;;
18304;SDS011;9278;52.156;21.048;2023-04-25T13:53:01;6.40;;;5.00;;
18304;SDS011;9278;52.156;21.048;2023-04-25T13:55:30;7.93;;;4.93;;
18304;SDS011;9278;52.156;21.048;2023-04-25T13:57:58;8.10;;;5.35;;
18304;SDS011;9278;52.156;21.048;2023-04-25T14:00:34;11.65;;;5.93;;
18304;SDS011;9278;52.156;21.048;2023-04-25T14:03:04;6.47;;;5.32;;
18304;SDS011;9278;52.156;21.048;2023-04-25T14:05:35;5.85;;;5.13;;
18304;SDS011;9278;52.156;21.048;2023-04-25T14:08:07;6.82;;;5.55;;
18304;SDS011;9278;52.156;21.048;2023-04-25T14:10:36;6.95;;;5.50;;
18304;SDS011;9278;52.156;21.048;2023-04-25T14:13:05;8.00;;;5.30;;
18304;SDS011;9278;52.156;21.048;2023-04-25T14:15:36;8.23;;;5.70;;
18304;SDS011;9278;52.156;21.048;2023-04-25T14:18:04;8.85;;;5.93;;
18304;SDS011;9278;52.156;21.048;2023-04-25T14:20:33;7.13;;;5.90;;
18304;SDS011;9278;52.156;21.048;2023-04-25T14:23:02;8.43;;;5.25;;
18304;SDS011;9278;52.156;21.048;2023-04-25T14:25:32;7.43;;;6.40;;
18304;SDS011;9278;52.156;21.048;2023-04-25T14:28:02;7.80;;;6.57;;
18304;SDS011;9278;52.156;21.048;2023-04-25T14:30:30;9.25;;;6.45;;
18304;SDS011;9278;52.156;21.048;2023-04-25T14:32:58;8.77;;;6.47;;
18304;SDS011;9278;52.156;21.048;2023-04-25T14:35:26;8.82;;;6.72;;
18304;SDS011;9278;52.156;21.048;2023-04-25T14:37:55;8.18;;;6.38;;
18304;SDS011;9278;52.156;21.048;2023-04-25T14:40:23;9.75;;;7.07;;
18304;SDS011;9278;52.156;21.048;2023-04-25T14:42:53;10.68;;;6.75;;
18304;SDS011;9278;52.156;21.048;2023-04-25T14:45:22;9.70;;;6.45;;
18304;SDS011;9278;52.156;21.048;2023-04-25T14:47:51;8.80;;;6.38;;
18304;SDS011;9278;52.156;21.048;2023-04-25T14:50:19;9.45;;;6.75;;
18304;SDS011;9278;52.156;21.048;2023-04-25T14:52:48;9.43;;;6.95;;
18304;SDS011;9278;52.156;21.048;2023-04-25T14:55:16;10.30;;;6.55;;
18304;SDS011;9278;52.156;21.048;2023-04-25T14:57:45;11.77;;;7.15;;
18304;SDS011;9278;52.156;21.048;2023-04-25T15:00:15;8.43;;;6.45;;
18304;SDS011;9278;52.156;21.048;2023-04-25T15:02:43;9.48;;;7.00;;
18304;SDS011;9278;52.156;21.048;2023-04-25T15:05:12;8.68;;;6.18;;